Terminal Aerodrome Forecast
Issued by NWS Binghamton, NY

Home | Current Version | Previous Version | Text Only | Print | Product List | Glossary On
Versions: 1 2 3 4 5 6 7 8 9 10 11 12 13 14 15 16 17
000
FTUS41 KBGM 300521
TAFSYR
TAF
KSYR 300521Z 3006/0106 28008KT P6SM OVC090
     FM301300 VRB03KT P6SM -SHRA SCT040 BKN070
      TEMPO 3014/3017 3SM -SHRA BR BKN030
     FM302000 10009G17KT P6SM OVC040
     FM010100 14011KT P6SM BKN060=

USA.gov is the U.S. government's official web portal to all federal, state and local government web resources and services.